createdAt,value
2023-05-08T00:00:06.137Z,44.73
2023-05-08T00:02:55.329Z,44.70
2023-05-08T00:05:24.500Z,44.26
2023-05-08T00:07:53.715Z,47.88
2023-05-08T00:10:22.514Z,48.27
2023-05-08T00:12:53.125Z,48.19
2023-05-08T00:15:22.267Z,45.64
2023-05-08T00:17:51.343Z,46.12
2023-05-08T00:20:20.255Z,44.83
2023-05-08T00:22:49.465Z,45.50
2023-05-08T00:25:18.294Z,44.27
2023-05-08T00:27:47.557Z,45.06
2023-05-08T00:30:18.285Z,46.06
2023-05-08T00:32:48.240Z,44.71
2023-05-08T00:35:17.025Z,44.33
2023-05-08T00:37:46.543Z,47.01
2023-05-08T00:40:15.715Z,48.19
2023-05-08T00:42:45.111Z,46.56
2023-05-08T00:45:13.872Z,47.78
2023-05-08T00:47:44.562Z,46.10
2023-05-08T00:50:13.857Z,48.42
2023-05-08T00:52:43.556Z,49.83
2023-05-08T00:55:12.329Z,51.79
2023-05-08T00:57:41.669Z,51.25
2023-05-08T01:00:11.571Z,49.63
2023-05-08T01:02:41.508Z,49.17
2023-05-08T01:05:12.381Z,49.55
2023-05-08T01:07:41.609Z,48.74
2023-05-08T01:10:11.121Z,48.38
2023-05-08T01:12:48.980Z,46.38
2023-05-08T01:15:19.607Z,47.98
2023-05-08T01:17:56.216Z,45.96
2023-05-08T01:20:36.737Z,46.35
2023-05-08T01:23:23.878Z,46.44
2023-05-08T01:26:19.686Z,49.79
2023-05-08T01:29:01.321Z,46.30
2023-05-08T01:31:37.866Z,51.48
2023-05-08T01:34:11.910Z,47.51
2023-05-08T01:36:42.551Z,48.22
2023-05-08T01:39:15.038Z,46.75
2023-05-08T01:41:48.720Z,47.61
2023-05-08T01:44:19.350Z,46.89
2023-05-08T01:46:50.122Z,47.85
2023-05-08T01:49:25.422Z,50.46
2023-05-08T01:51:57.979Z,46.88
2023-05-08T01:54:28.391Z,46.68
2023-05-08T01:56:58.889Z,48.35
2023-05-08T01:59:29.416Z,49.90
2023-05-08T02:01:59.916Z,48.19
2023-05-08T02:04:30.988Z,51.05
2023-05-08T02:07:01.101Z,48.84
2023-05-08T02:09:30.588Z,51.60
2023-05-08T02:12:03.054Z,48.90
2023-05-08T02:14:33.238Z,49.30
2023-05-08T02:17:03.543Z,53.22
2023-05-08T02:19:35.761Z,52.50
2023-05-08T02:22:05.255Z,50.50
2023-05-08T02:24:34.914Z,49.93
2023-05-08T02:27:04.637Z,50.62
2023-05-08T02:29:33.828Z,50.02
2023-05-08T02:32:03.535Z,53.47
2023-05-08T02:34:33.835Z,50.37
2023-05-08T02:37:03.731Z,49.81
2023-05-08T02:39:34.175Z,52.87
2023-05-08T02:42:04.011Z,51.12
2023-05-08T02:44:32.871Z,51.81
2023-05-08T02:47:07.242Z,50.62
2023-05-08T02:49:44.717Z,54.92
2023-05-08T02:52:15.203Z,52.84
2023-05-08T02:54:46.281Z,53.09
2023-05-08T02:57:22.965Z,53.13
2023-05-08T02:59:57.713Z,54.40
2023-05-08T03:02:29.991Z,53.85
2023-05-08T03:05:03.455Z,52.56
2023-05-08T03:07:33.994Z,53.23
2023-05-08T03:10:04.081Z,54.17
2023-05-08T03:12:36.739Z,52.40
2023-05-08T03:15:08.646Z,51.04
2023-05-08T03:17:40.749Z,52.92
2023-05-08T03:20:13.948Z,53.52
2023-05-08T03:22:44.734Z,51.93
2023-05-08T03:25:15.311Z,52.20
2023-05-08T03:27:46.237Z,55.43
2023-05-08T03:30:16.044Z,52.60
2023-05-08T03:32:49.225Z,55.96
2023-05-08T03:35:20.046Z,53.30
2023-05-08T03:37:49.437Z,54.41
2023-05-08T03:40:18.320Z,55.06
2023-05-08T03:42:48.238Z,54.64
2023-05-08T03:45:17.439Z,55.36
2023-05-08T03:47:47.837Z,57.11
2023-05-08T03:50:16.954Z,55.49
2023-05-08T03:52:47.740Z,55.69
2023-05-08T03:55:16.536Z,57.27
2023-05-08T03:57:49.834Z,58.07
2023-05-08T04:00:23.282Z,56.84
2023-05-08T04:02:58.166Z,57.84
2023-05-08T04:05:39.477Z,59.06
2023-05-08T04:08:16.874Z,59.12
2023-05-08T04:10:49.071Z,59.83
2023-05-08T04:13:21.349Z,59.12
2023-05-08T04:15:52.279Z,57.53
2023-05-08T04:18:26.294Z,58.78
2023-05-08T04:20:56.773Z,60.11
2023-05-08T04:23:29.912Z,58.69
2023-05-08T04:26:00.679Z,58.88
2023-05-08T04:28:30.963Z,59.79
2023-05-08T04:30:59.834Z,60.66
2023-05-08T04:33:29.509Z,60.63
2023-05-08T04:36:02.073Z,60.58
2023-05-08T04:38:32.725Z,59.75
2023-05-08T04:41:01.607Z,60.61
2023-05-08T04:43:30.850Z,59.62
2023-05-08T04:45:59.778Z,60.42
2023-05-08T04:48:31.384Z,59.83
2023-05-08T04:51:00.263Z,60.55
2023-05-08T04:53:29.371Z,61.67
2023-05-08T04:55:59.687Z,61.39
2023-05-08T04:58:31.858Z,60.96
2023-05-08T05:01:03.032Z,60.71
2023-05-08T05:03:33.452Z,60.46
2023-05-08T05:06:02.809Z,60.86
2023-05-08T05:08:31.967Z,59.91
2023-05-08T05:11:02.561Z,60.09
2023-05-08T05:13:31.852Z,59.62
2023-05-08T05:16:00.711Z,59.07
2023-05-08T05:18:29.948Z,58.29
2023-05-08T05:20:59.085Z,57.34
2023-05-08T05:23:28.996Z,59.27
2023-05-08T05:25:57.949Z,60.73
2023-05-08T05:28:28.987Z,60.10
2023-05-08T05:30:58.298Z,59.68
2023-05-08T05:33:27.454Z,59.17
2023-05-08T05:35:57.316Z,57.79
2023-05-08T05:38:26.848Z,58.41
2023-05-08T05:40:55.753Z,57.44
2023-05-08T05:43:25.137Z,57.46
2023-05-08T05:45:56.158Z,57.28
2023-05-08T05:48:26.296Z,56.52
2023-05-08T05:50:55.137Z,55.37
2023-05-08T05:53:24.376Z,54.42
2023-05-08T05:55:53.213Z,54.08
2023-05-08T05:58:22.742Z,53.79
2023-05-08T06:00:51.650Z,53.20
2023-05-08T06:03:22.346Z,52.97
2023-05-08T06:05:52.228Z,52.82
2023-05-08T06:08:21.926Z,52.68
2023-05-08T06:10:50.668Z,52.52
2023-05-08T06:13:20.215Z,52.53
2023-05-08T06:15:50.556Z,52.68
2023-05-08T06:18:22.130Z,52.02
2023-05-08T06:20:51.025Z,52.00
2023-05-08T06:23:20.082Z,51.88
2023-05-08T06:25:49.603Z,51.71
2023-05-08T06:28:18.890Z,52.30
2023-05-08T06:30:47.789Z,52.14
2023-05-08T06:33:17.056Z,51.79
2023-05-08T06:35:48.825Z,51.57
2023-05-08T06:38:19.107Z,51.88
2023-05-08T06:40:50.130Z,51.34
2023-05-08T06:43:19.275Z,51.24
2023-05-08T06:45:48.125Z,51.07
2023-05-08T06:48:17.224Z,50.99
2023-05-08T06:50:46.902Z,50.98
2023-05-08T06:53:17.492Z,50.79
2023-05-08T06:55:46.413Z,50.79
2023-05-08T06:58:15.439Z,50.73
2023-05-08T07:00:44.362Z,50.39
2023-05-08T07:03:13.486Z,50.45
2023-05-08T07:05:42.394Z,50.25
2023-05-08T07:08:11.485Z,50.16
2023-05-08T07:10:41.621Z,50.11
2023-05-08T07:13:10.865Z,49.95
2023-05-08T07:15:40.087Z,49.82
2023-05-08T07:18:09.469Z,49.70
2023-05-08T07:20:38.231Z,49.72
2023-05-08T07:23:07.569Z,49.63
2023-05-08T07:25:36.517Z,49.51
2023-05-08T07:28:08.258Z,49.37
2023-05-08T07:30:37.430Z,49.56
2023-05-08T07:33:06.504Z,49.13
2023-05-08T07:35:35.463Z,49.13
2023-05-08T07:38:04.623Z,48.65
2023-05-08T07:40:33.400Z,48.61
2023-05-08T07:43:02.627Z,48.19
2023-05-08T07:45:32.796Z,47.07
2023-05-08T07:48:02.601Z,47.65
2023-05-08T07:50:31.477Z,47.30
2023-05-08T07:53:00.484Z,46.92
2023-05-08T07:55:29.425Z,47.00
2023-05-08T07:57:59.046Z,46.82
2023-05-08T08:00:29.639Z,45.73
2023-05-08T08:03:00.382Z,44.69
2023-05-08T08:05:29.677Z,45.94
2023-05-08T08:07:58.779Z,44.72
2023-05-08T08:10:27.645Z,45.77
2023-05-08T08:12:56.745Z,44.51
2023-05-08T08:15:25.648Z,45.90
2023-05-08T08:17:54.812Z,44.42
2023-05-08T08:20:24.959Z,42.80
2023-05-08T08:22:54.144Z,44.02
2023-05-08T08:25:22.934Z,44.81
2023-05-08T08:27:52.325Z,45.15
2023-05-08T08:30:21.148Z,43.10
2023-05-08T08:32:50.716Z,43.94
2023-05-08T08:35:19.850Z,40.93
2023-05-08T08:37:50.335Z,41.37
2023-05-08T08:40:19.669Z,41.22
2023-05-08T08:42:48.756Z,40.38
2023-05-08T08:45:17.656Z,39.38
2023-05-08T08:47:47.342Z,37.99
2023-05-08T08:50:17.836Z,41.00
2023-05-08T08:52:49.334Z,41.75
2023-05-08T08:55:19.863Z,40.25
2023-05-08T08:57:54.072Z,39.02
2023-05-08T09:00:23.725Z,40.78
2023-05-08T09:02:53.510Z,39.00
2023-05-08T09:05:23.572Z,41.44
2023-05-08T09:07:55.587Z,39.63
2023-05-08T09:10:26.430Z,41.15
2023-05-08T09:12:55.670Z,37.15
2023-05-08T09:15:24.432Z,39.73
2023-05-08T09:17:53.632Z,39.80
2023-05-08T09:20:22.532Z,38.49
2023-05-08T09:22:52.514Z,38.79
2023-05-08T09:25:22.798Z,39.78
2023-05-08T09:27:53.319Z,39.63
2023-05-08T09:30:22.350Z,39.53
2023-05-08T09:32:51.685Z,38.46
2023-05-08T09:35:20.568Z,39.15
2023-05-08T09:37:49.618Z,38.04
2023-05-08T09:40:19.772Z,38.70
2023-05-08T09:42:50.056Z,37.16
2023-05-08T09:45:29.277Z,36.34
2023-05-08T09:47:58.840Z,35.82
2023-05-08T09:50:27.862Z,37.44
2023-05-08T09:52:57.747Z,36.92
2023-05-08T09:55:26.551Z,38.30
2023-05-08T09:57:57.797Z,37.38
2023-05-08T10:00:28.918Z,36.34
2023-05-08T10:02:59.493Z,37.40
2023-05-08T10:05:31.342Z,35.91
2023-05-08T10:08:18.553Z,36.62
2023-05-08T10:10:47.512Z,35.37
2023-05-08T10:13:16.751Z,36.88
2023-05-08T10:15:51.693Z,34.74
2023-05-08T10:18:22.682Z,33.54
2023-05-08T10:20:52.431Z,35.93
2023-05-08T10:23:21.612Z,35.19
2023-05-08T10:25:55.200Z,35.44
2023-05-08T10:28:30.359Z,34.71
2023-05-08T10:31:01.622Z,35.46
2023-05-08T10:33:32.176Z,35.38
2023-05-08T10:36:01.174Z,35.25
2023-05-08T10:38:31.694Z,35.02
2023-05-08T10:41:02.217Z,34.06
2023-05-08T10:43:32.229Z,36.13
2023-05-08T10:46:08.660Z,34.76
2023-05-08T10:48:44.751Z,34.71
2023-05-08T10:51:17.411Z,36.00
2023-05-08T10:53:50.398Z,35.85
2023-05-08T10:56:19.303Z,34.85
2023-05-08T10:58:56.443Z,35.60
2023-05-08T11:01:27.459Z,35.96
2023-05-08T11:03:56.942Z,33.87
2023-05-08T11:06:45.458Z,34.73
2023-05-08T11:09:22.273Z,35.16
2023-05-08T11:12:00.438Z,33.65
2023-05-08T11:14:30.116Z,36.64
2023-05-08T11:17:07.393Z,35.05
2023-05-08T11:19:37.347Z,33.42
2023-05-08T11:22:33.216Z,35.41
2023-05-08T11:25:06.718Z,33.56
2023-05-08T11:27:50.537Z,34.09
2023-05-08T11:30:20.440Z,33.92
2023-05-08T11:33:00.309Z,33.00
2023-05-08T11:35:42.338Z,32.91
2023-05-08T11:38:31.987Z,33.26
2023-05-08T11:41:10.464Z,34.51
2023-05-08T11:43:56.265Z,33.21
2023-05-08T11:46:33.793Z,33.41
2023-05-08T11:49:04.106Z,34.23
2023-05-08T11:51:33.891Z,33.34
2023-05-08T11:54:03.651Z,34.17
2023-05-08T11:56:32.686Z,34.38
2023-05-08T11:59:05.597Z,34.32
2023-05-08T12:01:34.645Z,35.94
2023-05-08T12:04:08.895Z,34.41
2023-05-08T12:06:38.852Z,33.06
2023-05-08T12:09:11.887Z,34.20
2023-05-08T12:11:43.741Z,32.82
2023-05-08T12:14:13.172Z,32.77
2023-05-08T12:16:42.501Z,31.79
2023-05-08T12:19:13.461Z,32.53
2023-05-08T12:21:46.936Z,32.65
2023-05-08T12:24:18.859Z,32.92
2023-05-08T12:26:48.125Z,33.83
2023-05-08T12:29:19.872Z,33.29
2023-05-08T12:31:49.377Z,32.64
2023-05-08T12:34:19.794Z,31.00
2023-05-08T12:36:49.147Z,32.89
2023-05-08T12:39:18.858Z,33.60
2023-05-08T12:41:49.010Z,31.60
2023-05-08T12:44:18.662Z,33.67
2023-05-08T12:46:48.258Z,32.94
2023-05-08T12:49:26.328Z,32.43
2023-05-08T12:52:01.741Z,33.58
2023-05-08T12:54:37.656Z,33.95
2023-05-08T12:57:13.082Z,32.81
2023-05-08T12:59:42.403Z,31.58
2023-05-08T13:02:15.365Z,32.47
2023-05-08T13:04:46.900Z,31.95
2023-05-08T13:07:16.360Z,32.74
2023-05-08T13:09:57.690Z,33.14
2023-05-08T13:12:26.888Z,32.23
2023-05-08T13:14:55.670Z,32.16
2023-05-08T13:17:24.964Z,31.67
2023-05-08T13:19:55.243Z,32.91
2023-05-08T13:22:26.795Z,30.93
2023-05-08T13:24:55.785Z,30.58
2023-05-08T13:27:24.851Z,31.30
2023-05-08T13:29:53.732Z,30.70
2023-05-08T13:32:22.991Z,31.44
2023-05-08T13:34:54.136Z,31.46
2023-05-08T13:37:28.259Z,32.65
2023-05-08T13:39:57.118Z,31.34
2023-05-08T13:42:26.336Z,32.89
2023-05-08T13:44:55.288Z,32.76
2023-05-08T13:47:24.379Z,32.21
2023-05-08T13:49:53.183Z,33.52
2023-05-08T13:52:22.422Z,30.73
2023-05-08T13:54:52.573Z,30.48
2023-05-08T13:57:21.752Z,30.48
2023-05-08T13:59:50.461Z,30.24
2023-05-08T14:02:19.813Z,31.65
2023-05-08T14:04:48.701Z,30.11
2023-05-08T14:07:18.595Z,31.63
2023-05-08T14:09:47.618Z,32.03
2023-05-08T14:12:18.288Z,30.77
2023-05-08T14:14:47.142Z,28.56
2023-05-08T14:17:16.151Z,28.50
2023-05-08T14:19:46.189Z,27.26
2023-05-08T14:22:15.394Z,27.27
2023-05-08T14:24:44.293Z,29.03
2023-05-08T14:27:13.472Z,28.48
2023-05-08T14:29:43.790Z,28.85
2023-05-08T14:32:12.854Z,26.24
2023-05-08T14:34:41.842Z,26.55
2023-05-08T14:37:11.317Z,24.98
2023-05-08T14:39:40.119Z,26.04
2023-05-08T14:44:41.249Z,26.43
2023-05-08T14:47:11.928Z,27.65
2023-05-08T14:49:40.829Z,25.29
2023-05-08T14:52:09.892Z,24.44
2023-05-08T14:54:38.963Z,25.49
2023-05-08T14:57:08.350Z,24.05
2023-05-08T14:59:38.671Z,26.25
2023-05-08T15:02:14.365Z,23.88
2023-05-08T15:04:44.224Z,23.64
2023-05-08T15:07:13.511Z,26.72
2023-05-08T15:09:42.420Z,26.16
2023-05-08T15:12:11.474Z,22.74
2023-05-08T15:14:40.633Z,23.72
2023-05-08T15:17:09.699Z,25.09
2023-05-08T15:19:39.986Z,25.66
2023-05-08T15:22:09.460Z,25.08
2023-05-08T15:24:38.223Z,23.62
2023-05-08T15:27:07.629Z,24.35
2023-05-08T15:29:36.859Z,22.36
2023-05-08T15:32:07.366Z,23.72
2023-05-08T15:34:38.020Z,24.11
2023-05-08T15:37:09.160Z,25.50
2023-05-08T15:39:38.251Z,24.36
2023-05-08T15:42:07.481Z,23.64
2023-05-08T15:47:08.414Z,23.16
2023-05-08T15:49:37.302Z,24.42
2023-05-08T15:52:06.839Z,21.90
2023-05-08T15:54:36.982Z,20.03
2023-05-08T15:57:06.125Z,23.39
2023-05-08T15:59:37.724Z,22.59
2023-05-08T16:02:07.254Z,23.67
2023-05-08T16:04:36.720Z,22.32
2023-05-08T16:07:05.999Z,20.82
2023-05-08T16:09:34.746Z,21.47
2023-05-08T16:12:05.782Z,20.50
2023-05-08T16:14:36.257Z,21.31
2023-05-08T16:17:06.701Z,20.00
2023-05-08T16:19:38.169Z,22.30
2023-05-08T16:22:07.510Z,22.69
2023-05-08T16:24:36.235Z,21.71
2023-05-08T16:27:06.809Z,22.41
2023-05-08T16:29:35.687Z,21.53
2023-05-08T16:32:04.814Z,21.61
2023-05-08T16:34:35.274Z,21.49
2023-05-08T16:37:04.706Z,20.42
2023-05-08T16:39:33.864Z,21.96
2023-05-08T16:42:03.134Z,21.21
2023-05-08T16:44:33.454Z,21.12
2023-05-08T16:47:02.911Z,22.27
2023-05-08T16:49:31.772Z,21.59
2023-05-08T16:52:01.205Z,22.47
2023-05-08T16:54:29.981Z,22.88
2023-05-08T16:56:59.173Z,23.03
2023-05-08T16:59:27.959Z,23.28
2023-05-08T17:01:58.543Z,23.46
2023-05-08T17:04:28.847Z,23.20
2023-05-08T17:07:00.586Z,23.59
2023-05-08T17:09:29.753Z,23.69
2023-05-08T17:11:59.038Z,24.14
2023-05-08T17:14:27.913Z,24.43
2023-05-08T17:16:58.396Z,24.54
2023-05-08T17:19:27.477Z,24.39
2023-05-08T17:21:58.189Z,25.12
2023-05-08T17:24:28.729Z,24.99
2023-05-08T17:26:57.785Z,25.00
2023-05-08T17:29:26.731Z,25.28
2023-05-08T17:31:55.930Z,25.87
2023-05-08T17:34:26.813Z,25.59
2023-05-08T17:36:56.171Z,25.99
2023-05-08T17:39:24.900Z,26.27
2023-05-08T17:41:54.776Z,26.28
2023-05-08T17:44:23.615Z,26.38
2023-05-08T17:46:52.794Z,26.72
2023-05-08T17:49:21.756Z,26.70
2023-05-08T17:51:52.281Z,26.74
2023-05-08T17:54:21.237Z,27.03
2023-05-08T17:56:50.433Z,27.27
2023-05-08T17:59:19.877Z,27.70
2023-05-08T18:01:48.969Z,27.93
2023-05-08T18:04:17.746Z,28.02
2023-05-08T18:06:49.193Z,28.35
2023-05-08T18:09:21.519Z,28.58
2023-05-08T18:11:50.825Z,28.92
2023-05-08T18:14:19.553Z,29.06
2023-05-08T18:16:48.746Z,29.51
2023-05-08T18:19:17.639Z,29.41
2023-05-08T18:21:46.895Z,29.85
2023-05-08T18:24:17.377Z,29.67
2023-05-08T18:26:49.642Z,29.89
2023-05-08T18:29:19.475Z,30.22
2023-05-08T18:31:48.660Z,30.55
2023-05-08T18:34:17.588Z,30.89
2023-05-08T18:36:46.678Z,31.06
2023-05-08T18:39:15.590Z,31.30
2023-05-08T18:41:44.676Z,31.56
2023-05-08T18:44:14.906Z,31.89
2023-05-08T18:46:44.187Z,31.48
2023-05-08T18:49:12.939Z,31.22
2023-05-08T18:51:42.032Z,31.64
2023-05-08T18:54:10.897Z,32.12
2023-05-08T18:56:40.050Z,32.07
2023-05-08T18:59:08.986Z,32.34
2023-05-08T19:01:39.533Z,32.13
2023-05-08T19:04:08.441Z,32.32
2023-05-08T19:06:37.493Z,32.44
2023-05-08T19:09:06.306Z,32.32
2023-05-08T19:11:35.481Z,32.79
2023-05-08T19:14:05.500Z,32.76
2023-05-08T19:16:34.716Z,33.29
2023-05-08T19:19:04.879Z,33.10
2023-05-08T19:21:35.072Z,32.95
2023-05-08T19:24:06.491Z,33.89
2023-05-08T19:26:35.837Z,33.70
2023-05-08T19:29:04.593Z,34.49
2023-05-08T19:31:33.770Z,34.44
2023-05-08T19:34:04.111Z,35.05
2023-05-08T19:36:34.937Z,35.82
2023-05-08T19:39:06.010Z,35.11
2023-05-08T19:41:35.048Z,35.07
2023-05-08T19:44:04.101Z,35.25
2023-05-08T19:46:33.400Z,35.24
2023-05-08T19:49:04.859Z,35.88
2023-05-08T19:51:34.576Z,35.91
2023-05-08T19:54:03.374Z,35.73
2023-05-08T19:56:32.450Z,35.69
2023-05-08T19:59:02.644Z,36.27
2023-05-08T20:01:31.897Z,36.42
2023-05-08T20:04:01.013Z,36.91
2023-05-08T20:06:32.006Z,36.57
2023-05-08T20:09:00.900Z,36.22
2023-05-08T20:11:30.557Z,37.02
2023-05-08T20:13:59.702Z,36.94
2023-05-08T20:16:28.950Z,36.48
2023-05-08T20:18:57.703Z,36.64
2023-05-08T20:21:27.813Z,37.23
2023-05-08T20:23:58.127Z,36.78
2023-05-08T20:26:28.481Z,37.54
2023-05-08T20:28:57.594Z,37.46
2023-05-08T20:31:27.946Z,36.99
2023-05-08T20:33:56.965Z,37.67
2023-05-08T20:36:28.816Z,37.46
2023-05-08T20:39:03.794Z,36.96
2023-05-08T20:41:33.392Z,38.10
2023-05-08T20:44:02.329Z,40.02
2023-05-08T20:46:34.271Z,38.68
2023-05-08T20:49:06.181Z,38.20
2023-05-08T20:51:36.349Z,38.19
2023-05-08T20:54:10.249Z,38.42
2023-05-08T20:56:41.017Z,39.32
2023-05-08T20:59:12.624Z,38.94
2023-05-08T21:01:41.864Z,38.63
2023-05-08T21:04:10.731Z,38.20
2023-05-08T21:06:40.434Z,39.27
2023-05-08T21:09:11.028Z,40.77
2023-05-08T21:11:40.231Z,39.47
2023-05-08T21:14:08.999Z,39.33
2023-05-08T21:16:38.371Z,41.31
2023-05-08T21:19:07.145Z,40.34
2023-05-08T21:21:36.296Z,39.39
2023-05-08T21:24:05.213Z,39.89
2023-05-08T21:26:35.827Z,39.23
2023-05-08T21:29:05.213Z,40.27
2023-05-08T21:31:35.589Z,41.31
2023-05-08T21:34:06.972Z,41.03
2023-05-08T21:36:36.187Z,39.17
2023-05-08T21:39:05.172Z,39.70
2023-05-08T21:41:36.015Z,41.98
2023-05-08T21:44:05.093Z,41.36
2023-05-08T21:46:34.220Z,40.59
2023-05-08T21:49:03.265Z,42.15
2023-05-08T21:51:32.650Z,40.97
2023-05-08T21:54:01.813Z,40.69
2023-05-08T21:56:31.202Z,40.64
2023-05-08T21:59:01.360Z,41.54
2023-05-08T22:01:30.937Z,41.40
2023-05-08T22:04:00.143Z,42.15
2023-05-08T22:06:29.076Z,41.51
2023-05-08T22:08:59.038Z,40.69
2023-05-08T22:11:28.063Z,41.16
2023-05-08T22:13:57.116Z,41.31
2023-05-08T22:16:27.506Z,41.33
2023-05-08T22:18:56.677Z,41.85
2023-05-08T22:21:29.523Z,41.02
2023-05-08T22:23:58.717Z,42.78
2023-05-08T22:26:28.729Z,42.12
2023-05-08T22:28:57.963Z,40.75
2023-05-08T22:31:28.135Z,40.74
2023-05-08T22:33:58.529Z,40.71
2023-05-08T22:36:27.874Z,42.37
2023-05-08T22:38:57.014Z,41.32
2023-05-08T22:41:25.881Z,41.49
2023-05-08T22:43:54.985Z,42.10
2023-05-08T22:46:24.315Z,44.04
2023-05-08T22:48:54.875Z,42.43
2023-05-08T22:51:23.806Z,42.93
2023-05-08T22:53:53.107Z,43.74
2023-05-08T22:56:21.963Z,41.91
2023-05-08T22:58:51.112Z,41.52
2023-05-08T23:01:19.905Z,42.43
2023-05-08T23:03:49.653Z,41.69
2023-05-08T23:06:19.780Z,41.36
2023-05-08T23:08:48.966Z,43.03
2023-05-08T23:11:17.805Z,42.51
2023-05-08T23:13:47.012Z,44.38
2023-05-08T23:16:15.844Z,43.47
2023-05-08T23:18:45.671Z,45.86
2023-05-08T23:21:14.409Z,45.73
2023-05-08T23:23:45.290Z,45.19
2023-05-08T23:26:15.097Z,46.32
2023-05-08T23:28:44.099Z,46.79
2023-05-08T23:31:12.976Z,44.74
2023-05-08T23:33:42.126Z,47.22
2023-05-08T23:36:10.986Z,49.25
2023-05-08T23:38:40.125Z,46.21
2023-05-08T23:41:10.947Z,48.57
2023-05-08T23:43:40.130Z,45.39
2023-05-08T23:46:09.874Z,45.16
2023-05-08T23:48:39.162Z,48.68
2023-05-08T23:51:07.949Z,48.79
2023-05-08T23:53:37.123Z,50.21
2023-05-08T23:56:06.317Z,49.75
2023-05-08T23:58:36.951Z,48.68
